メインページ
METAR-TAF:

METAR-TAF

空港 :

オタワ, オンタリオ州, カナダ

オタワ・マクドナルド・カルティエ国際空港

緯度: 45-19N, 経度: 075-40W, 海抜: 116m

現時点の気象観測

当レポートは1時間6分前の21:00(UTC)に作成
南東の風 5kt
気温 3°C
湿度 81%
気圧 1019 hPa
視程: 9.7km
高度2400ftの曇り
小雨, 靄

METAR: CYOW 192100Z 14005KT 6SM -RA BR OVC024 03/00 A3009 RMK SC8 SLP198

時間: 17:06 (22:06 UTC)

予報

当レポートは1時間28分前の20:38(UTC)に作成
予報は19日の 21時(UTC)から 20日の 18時(UTC)まで有効
南/南西の風 6kt
視程: 10km
高度6000ftの曇り
小雨
19日の 21時(UTC)から 19日の 24時(UTC)まで一時的に
視程: 8.0km
高度3000ftの曇り
小雨, 靄
確率 30%
19日の 23時(UTC)から 19日の 24時(UTC)まで
高度800ftの曇り
小雨, 靄
20日の 0000時(UTC)から
の風 8kt
高度800ftの曇り
小雨, 靄
20日の 0500時(UTC)から
東/北東の風 5kt
視程: 3.2km
高度500ftの曇り
小雨, 靄
確率 30%
20日の 05時(UTC)から 20日の 12時(UTC)まで
視程: 1.2km
高度300ftの曇り
20日の 1200時(UTC)から
東/北東の風 7kt
高度300ftの曇り
確率 30%
20日の 12時(UTC)から 20日の 18時(UTC)まで
視程: 0.4km
高度100ftの
小雨, 霧

TAF: CYOW 192038Z 1921/2018 20006KT P6SM -RA OVC060 TEMPO 1921/1924 5SM -RA BR OVC030 PROB30 1923/1924 21/2SM -RA BR OVC008 FM200000 18008KT 21/2SM -RA BR OVC008 FM200500 07005KT 2SM -RA BR OVC005 PROB30 2005/2012 3/4SM BR OVC003 FM201200 07007KT 11/2SM RA OVC003 PROB30 2012/2018 1/4SM -RA FG VV001 RMK NXT FCST BY 200000Z

4,000以上の空港の気象観測と天気予報(METAR報とTAF報)

利用可能な観測所は地図上に黄色い丸と赤い丸で示す。

丸の上にカーソルを重ねると観測所名を参照できる。

次にクリックすると気象観測と天気予報を参照できる。

マップの切り替え:黒色「×」印の緑ボタンをクリックして拡大、「-」印の緑ボタンをクリックして縮小、緑色の三角印をクリックして隣りの地図に切り替え


METAR-TAF: